Time;durP1;ratioP1;P1;durP2;ratioP2;P2;SDS_P1;SDS_P2;PMS_P1;PMS_P2;Temp;Humidity;BMP_temperature;BMP_pressure;BME280_temperature;BME280_humidity;BME280_pressure;Samples;Min_cycle;Max_cycle;Signal;HPM_P1;HPM_P2
2022/11/27 00:00:35;;;;;;;18.87;7.43;;;;;;;;;;5025820;28;20172;-66
2022/11/27 00:03:00;;;;;;;18.30;6.53;;;;;;;;;;5026610;28;20698;-66
2022/11/27 00:05:25;;;;;;;13.03;6.40;;;;;;;;;;5028938;28;20201;-66
2022/11/27 00:07:50;;;;;;;21.53;7.17;;;;;;;;;;5026308;28;20180;-66
2022/11/27 00:10:16;;;;;;;14.67;6.80;;;;;;;;;;5027988;28;20785;-66
2022/11/27 00:12:41;;;;;;;17.23;7.00;;;;;;;;;;5025961;28;20184;-66
2022/11/27 00:15:06;;;;;;;16.60;7.40;;;;;;;;;;5026979;28;20863;-66
2022/11/27 00:17:32;;;;;;;11.67;6.30;;;;;;;;;;5026070;28;20168;-66
2022/11/27 00:19:57;;;;;;;22.07;7.57;;;;;;;;;;5026555;28;20180;-66
2022/11/27 00:22:22;;;;;;;21.00;7.20;;;;;;;;;;5025807;28;20776;-66
2022/11/27 00:24:47;;;;;;;16.70;7.50;;;;;;;;;;5025300;28;20294;-66
2022/11/27 00:27:13;;;;;;;19.80;7.03;;;;;;;;;;5009260;28;20579;-66
2022/11/27 00:29:38;;;;;;;18.30;7.23;;;;;;;;;;5025222;28;20196;-66
2022/11/27 00:32:06;;;;;;;21.73;7.90;;;;;;;;;;5025678;28;20179;-66
2022/11/27 00:34:32;;;;;;;23.70;6.60;;;;;;;;;;5027225;28;20208;-66
2022/11/27 00:36:57;;;;;;;19.10;5.90;;;;;;;;;;5024777;28;20442;-66
2022/11/27 00:39:22;;;;;;;13.67;6.50;;;;;;;;;;5023329;28;21056;-66
2022/11/27 00:41:48;;;;;;;18.50;6.70;;;;;;;;;;5024461;28;20250;-66
2022/11/27 00:44:13;;;;;;;21.97;7.00;;;;;;;;;;5018356;28;20196;-66
2022/11/27 00:46:40;;;;;;;19.93;6.10;;;;;;;;;;5024553;28;20238;-66
2022/11/27 00:49:06;;;;;;;22.03;7.00;;;;;;;;;;5023644;28;20176;-66
2022/11/27 00:51:31;;;;;;;11.63;6.00;;;;;;;;;;5025649;28;21014;-66
2022/11/27 00:53:57;;;;;;;20.20;6.93;;;;;;;;;;5027127;28;20191;-66
2022/11/27 00:56:23;;;;;;;18.77;6.70;;;;;;;;;;5025434;28;20173;-66
2022/11/27 00:58:49;;;;;;;16.97;6.40;;;;;;;;;;5026632;28;20176;-66
2022/11/27 01:01:19;;;;;;;16.50;6.20;;;;;;;;;;5026660;28;20940;-66
2022/11/27 01:03:45;;;;;;;14.43;6.60;;;;;;;;;;5026975;28;20223;-66
2022/11/27 01:06:10;;;;;;;18.90;7.00;;;;;;;;;;5007491;28;20403;-66
2022/11/27 01:08:35;;;;;;;30.50;7.60;;;;;;;;;;5029829;28;20414;-66
2022/11/27 01:11:01;;;;;;;15.07;6.30;;;;;;;;;;5027718;28;20581;-66
2022/11/27 01:13:28;;;;;;;12.60;5.90;;;;;;;;;;5028562;28;20177;-66
2022/11/27 01:16:14;;;;;;;12.67;5.90;;;;;;;;;;5030630;28;20312;-66
2022/11/27 01:18:40;;;;;;;13.73;6.60;;;;;;;;;;5029530;28;20417;-66
2022/11/27 01:21:06;;;;;;;16.97;6.20;;;;;;;;;;5028439;28;20407;-65
2022/11/27 01:23:31;;;;;;;13.13;6.63;;;;;;;;;;5026849;28;20800;-65
2022/11/27 01:25:59;;;;;;;15.73;6.73;;;;;;;;;;5011527;28;20216;-65
2022/11/27 01:28:24;;;;;;;12.20;5.93;;;;;;;;;;5026876;28;20180;-66
2022/11/27 01:30:50;;;;;;;15.30;6.10;;;;;;;;;;5027423;28;20454;-66
2022/11/27 01:33:16;;;;;;;13.33;5.90;;;;;;;;;;5029143;28;20756;-65
2022/11/27 01:35:41;;;;;;;15.37;6.47;;;;;;;;;;5029051;28;20246;-65
2022/11/27 01:38:06;;;;;;;16.67;6.83;;;;;;;;;;5028017;28;20469;-65
2022/11/27 01:40:32;;;;;;;12.67;5.67;;;;;;;;;;5026257;28;20181;-65
2022/11/27 01:42:57;;;;;;;17.60;6.47;;;;;;;;;;5027397;28;20219;-65
2022/11/27 01:45:22;;;;;;;17.47;6.00;;;;;;;;;;5029126;28;20656;-65
2022/11/27 01:47:59;;;;;;;15.23;6.83;;;;;;;;;;5027838;28;20184;-66
2022/11/27 01:50:30;;;;;;;15.83;6.23;;;;;;;;;;5026315;28;20588;-65
2022/11/27 01:52:58;;;;;;;15.80;6.27;;;;;;;;;;5030314;28;20426;-65
2022/11/27 01:55:31;;;;;;;11.27;5.73;;;;;;;;;;5026838;28;20427;-66
2022/11/27 01:58:03;;;;;;;13.43;5.90;;;;;;;;;;5026665;28;20469;-65
2022/11/27 02:00:28;;;;;;;11.70;5.87;;;;;;;;;;5026755;28;20512;-65
2022/11/27 02:02:54;;;;;;;16.83;6.07;;;;;;;;;;5026358;28;21359;-65
2022/11/27 02:05:24;;;;;;;13.57;5.90;;;;;;;;;;5025102;28;20227;-65
2022/11/27 02:07:50;;;;;;;16.13;6.40;;;;;;;;;;5026488;28;20263;-65
2022/11/27 02:10:15;;;;;;;12.87;6.30;;;;;;;;;;5022614;28;20498;-65
2022/11/27 02:12:58;;;;;;;10.90;5.80;;;;;;;;;;5009695;28;20426;-66
2022/11/27 02:15:24;;;;;;;11.20;5.47;;;;;;;;;;5029668;28;20207;-66
2022/11/27 02:17:56;;;;;;;13.03;6.10;;;;;;;;;;5026121;28;20629;-65
2022/11/27 02:20:27;;;;;;;11.17;5.73;;;;;;;;;;5026746;28;20650;-65
2022/11/27 02:23:08;;;;;;;10.67;5.33;;;;;;;;;;5025511;28;20411;-65
2022/11/27 02:25:46;;;;;;;10.90;5.80;;;;;;;;;;5027800;28;20451;-65
2022/11/27 02:28:20;;;;;;;12.10;6.00;;;;;;;;;;5026300;28;20419;-65
2022/11/27 02:30:48;;;;;;;16.40;5.87;;;;;;;;;;5026619;28;20972;-65
2022/11/27 02:33:15;;;;;;;11.20;5.23;;;;;;;;;;5027685;28;20807;-65
2022/11/27 02:35:47;;;;;;;11.13;5.60;;;;;;;;;;5024614;28;20916;-65
2022/11/27 02:38:15;;;;;;;11.00;5.53;;;;;;;;;;5021262;28;20451;-65
2022/11/27 02:40:43;;;;;;;16.37;5.20;;;;;;;;;;5026116;28;21068;-66
2022/11/27 02:43:18;;;;;;;13.33;5.60;;;;;;;;;;5026092;28;20415;-65
2022/11/27 02:45:45;;;;;;;15.17;5.30;;;;;;;;;;5025525;28;20473;-65
2022/11/27 02:48:12;;;;;;;9.83;5.40;;;;;;;;;;5027060;28;20426;-65
2022/11/27 02:50:39;;;;;;;15.73;5.60;;;;;;;;;;5028143;28;20497;-66
2022/11/27 02:53:07;;;;;;;12.13;5.63;;;;;;;;;;5026153;28;20446;-65
2022/11/27 02:55:33;;;;;;;11.07;5.47;;;;;;;;;;5025789;28;20449;-65
2022/11/27 02:57:59;;;;;;;12.97;4.93;;;;;;;;;;5024613;28;20944;-65
2022/11/27 03:00:25;;;;;;;11.90;4.60;;;;;;;;;;5026361;28;20408;-65
2022/11/27 03:02:56;;;;;;;9.10;5.60;;;;;;;;;;5026374;28;20419;-65
2022/11/27 03:05:22;;;;;;;17.93;5.80;;;;;;;;;;5023166;28;20387;-65
2022/11/27 03:07:53;;;;;;;11.30;4.70;;;;;;;;;;5025586;28;20458;-65
2022/11/27 03:10:21;;;;;;;16.73;6.03;;;;;;;;;;5025524;28;21039;-65
2022/11/27 03:12:47;;;;;;;13.67;5.30;;;;;;;;;;5023733;28;20928;-65
2022/11/27 03:15:12;;;;;;;14.03;5.17;;;;;;;;;;5026120;28;20442;-65
2022/11/27 03:17:56;;;;;;;13.43;5.20;;;;;;;;;;5023034;28;20403;-66
2022/11/27 03:20:24;;;;;;;9.97;5.20;;;;;;;;;;5024740;28;20180;-66
2022/11/27 03:22:51;;;;;;;11.77;4.90;;;;;;;;;;5024324;28;20431;-66
2022/11/27 03:25:19;;;;;;;9.07;5.03;;;;;;;;;;5007512;28;20470;-66
2022/11/27 03:28:01;;;;;;;9.77;5.00;;;;;;;;;;5026612;28;20929;-65
2022/11/27 03:30:27;;;;;;;14.13;5.30;;;;;;;;;;5024030;28;20469;-66
2022/11/27 03:32:53;;;;;;;11.40;5.30;;;;;;;;;;5025478;28;20808;-66
2022/11/27 03:35:20;;;;;;;12.50;5.23;;;;;;;;;;5025024;28;20250;-65
2022/11/27 03:37:45;;;;;;;7.17;4.53;;;;;;;;;;5022916;28;20180;-65
2022/11/27 03:40:11;;;;;;;10.80;5.50;;;;;;;;;;5027907;28;20446;-65
2022/11/27 03:42:44;;;;;;;11.43;5.03;;;;;;;;;;5026514;28;20260;-65
2022/11/27 03:45:20;;;;;;;14.63;5.70;;;;;;;;;;5025758;28;20252;-65
2022/11/27 03:47:45;;;;;;;8.67;4.80;;;;;;;;;;5021748;28;20494;-65
2022/11/27 03:50:20;;;;;;;9.37;4.83;;;;;;;;;;5028649;28;20566;-65
2022/11/27 03:53:04;;;;;;;10.07;4.90;;;;;;;;;;5024692;28;20206;-65
2022/11/27 03:55:48;;;;;;;10.30;4.90;;;;;;;;;;5023546;28;20439;-65
2022/11/27 03:58:24;;;;;;;9.13;4.30;;;;;;;;;;5025431;28;20810;-65
2022/11/27 04:00:50;;;;;;;10.23;4.73;;;;;;;;;;5023834;28;20416;-65
2022/11/27 04:03:20;;;;;;;9.97;4.90;;;;;;;;;;5027054;28;20498;-65
2022/11/27 04:05:45;;;;;;;12.40;5.33;;;;;;;;;;5021347;28;20662;-65
2022/11/27 04:08:11;;;;;;;9.67;4.50;;;;;;;;;;5023857;28;20489;-65
2022/11/27 04:10:36;;;;;;;7.37;4.00;;;;;;;;;;5021747;28;20524;-65
2022/11/27 04:13:01;;;;;;;11.03;4.40;;;;;;;;;;5027897;28;20180;-65
2022/11/27 04:15:26;;;;;;;14.17;5.07;;;;;;;;;;5022862;28;20188;-65
2022/11/27 04:17:52;;;;;;;9.83;4.30;;;;;;;;;;5026857;28;20208;-65
2022/11/27 04:20:17;;;;;;;9.80;4.43;;;;;;;;;;5022223;28;20657;-65
2022/11/27 04:22:43;;;;;;;11.80;5.37;;;;;;;;;;5025568;28;20203;-65
2022/11/27 04:25:08;;;;;;;11.63;4.33;;;;;;;;;;5016986;28;20216;-65
2022/11/27 04:27:33;;;;;;;8.10;4.57;;;;;;;;;;5024361;28;20669;-65
2022/11/27 04:29:59;;;;;;;8.90;4.53;;;;;;;;;;5024053;28;20235;-66
2022/11/27 04:32:24;;;;;;;6.80;3.80;;;;;;;;;;5008564;28;20639;-65
2022/11/27 04:34:49;;;;;;;10.37;4.67;;;;;;;;;;5022777;28;20200;-65
2022/11/27 04:37:15;;;;;;;9.23;4.33;;;;;;;;;;5024850;28;20653;-65
2022/11/27 04:39:40;;;;;;;10.37;4.13;;;;;;;;;;5021781;28;20192;-65
2022/11/27 04:42:06;;;;;;;9.27;4.57;;;;;;;;;;5026624;28;20263;-65
2022/11/27 04:44:31;;;;;;;8.30;4.40;;;;;;;;;;5027353;28;20230;-65
2022/11/27 04:46:56;;;;;;;14.67;4.23;;;;;;;;;;5027636;28;20176;-65
2022/11/27 04:49:21;;;;;;;8.53;3.97;;;;;;;;;;5025223;28;20203;-68
2022/11/27 04:51:47;;;;;;;11.30;4.23;;;;;;;;;;5024366;28;20247;-67
2022/11/27 04:54:12;;;;;;;8.10;4.33;;;;;;;;;;5008109;28;20226;-65
2022/11/27 04:56:37;;;;;;;13.30;4.17;;;;;;;;;;5025060;28;20172;-65
2022/11/27 04:59:03;;;;;;;9.80;4.40;;;;;;;;;;5021666;28;20165;-65
2022/11/27 05:01:29;;;;;;;12.47;4.30;;;;;;;;;;5021233;28;20165;-65
2022/11/27 05:03:54;;;;;;;9.47;4.33;;;;;;;;;;5024258;28;20803;-65
2022/11/27 05:06:21;;;;;;;11.33;4.63;;;;;;;;;;5018395;28;20168;-65
2022/11/27 05:08:47;;;;;;;6.43;3.63;;;;;;;;;;5023250;28;20256;-66
2022/11/27 05:11:13;;;;;;;10.50;4.80;;;;;;;;;;5021837;28;20590;-67
2022/11/27 05:13:38;;;;;;;8.87;4.53;;;;;;;;;;5022821;28;20418;-66
2022/11/27 05:16:04;;;;;;;8.70;3.57;;;;;;;;;;5021806;28;20409;-66
2022/11/27 05:18:29;;;;;;;8.17;3.57;;;;;;;;;;5023417;28;20650;-65
2022/11/27 05:20:58;;;;;;;9.03;4.10;;;;;;;;;;5008636;28;20483;-66
2022/11/27 05:23:24;;;;;;;9.37;4.10;;;;;;;;;;5026408;28;20179;-66
2022/11/27 05:25:50;;;;;;;8.70;3.70;;;;;;;;;;5024866;28;20525;-65
2022/11/27 05:28:15;;;;;;;8.07;3.70;;;;;;;;;;5024631;28;20435;-66
2022/11/27 05:30:41;;;;;;;17.63;4.20;;;;;;;;;;5023940;28;20234;-66
2022/11/27 05:33:06;;;;;;;7.10;3.93;;;;;;;;;;5023659;28;20707;-65
2022/11/27 05:35:31;;;;;;;9.33;4.43;;;;;;;;;;5026074;28;20199;-66
2022/11/27 05:37:57;;;;;;;10.13;3.83;;;;;;;;;;5004610;28;20200;-66
2022/11/27 05:40:22;;;;;;;10.97;4.07;;;;;;;;;;5026977;28;20180;-66
2022/11/27 05:42:47;;;;;;;8.73;4.00;;;;;;;;;;5008076;28;20262;-66
2022/11/27 05:45:13;;;;;;;9.03;3.67;;;;;;;;;;5006869;28;20207;-66
2022/11/27 05:47:38;;;;;;;10.53;3.57;;;;;;;;;;5025145;28;20662;-66
2022/11/27 05:50:04;;;;;;;8.77;3.87;;;;;;;;;;5025545;28;20287;-66
2022/11/27 05:52:32;;;;;;;10.57;4.80;;;;;;;;;;5026344;28;20207;-65
2022/11/27 05:54:57;;;;;;;6.87;3.70;;;;;;;;;;5029602;28;20333;-66
2022/11/27 05:57:22;;;;;;;9.53;4.13;;;;;;;;;;5028360;28;20419;-66
2022/11/27 05:59:48;;;;;;;8.27;3.73;;;;;;;;;;5023134;28;20208;-66
2022/11/27 06:02:13;;;;;;;13.73;4.90;;;;;;;;;;5028599;28;20590;-65
2022/11/27 06:04:38;;;;;;;7.40;3.40;;;;;;;;;;5028235;28;20220;-66
2022/11/27 06:07:04;;;;;;;6.93;3.53;;;;;;;;;;5028184;28;20191;-66
2022/11/27 06:09:29;;;;;;;7.80;3.80;;;;;;;;;;5028271;28;20192;-66
2022/11/27 06:11:54;;;;;;;10.53;4.50;;;;;;;;;;5028677;28;20183;-66
2022/11/27 06:14:20;;;;;;;9.10;4.60;;;;;;;;;;5011099;28;20200;-65
2022/11/27 06:16:45;;;;;;;6.53;3.50;;;;;;;;;;5029048;28;20212;-65
2022/11/27 06:19:10;;;;;;;12.27;4.83;;;;;;;;;;5027446;28;20183;-66
2022/11/27 06:21:36;;;;;;;6.97;3.40;;;;;;;;;;5026473;28;20181;-66
2022/11/27 06:24:02;;;;;;;9.70;3.33;;;;;;;;;;5028244;28;20208;-66
2022/11/27 06:26:28;;;;;;;7.33;4.00;;;;;;;;;;5029038;28;20191;-65
2022/11/27 06:28:54;;;;;;;12.10;3.67;;;;;;;;;;5027823;28;20411;-66
2022/11/27 06:31:21;;;;;;;8.33;3.37;;;;;;;;;;5028153;28;20459;-66
2022/11/27 06:33:47;;;;;;;7.03;3.30;;;;;;;;;;5027256;28;20522;-66
2022/11/27 06:36:13;;;;;;;7.47;3.90;;;;;;;;;;5027106;28;20905;-66
2022/11/27 06:38:38;;;;;;;10.27;4.07;;;;;;;;;;5026795;28;20510;-66
2022/11/27 06:41:05;;;;;;;8.90;4.00;;;;;;;;;;5010106;28;20226;-66
2022/11/27 06:43:30;;;;;;;12.13;3.83;;;;;;;;;;5029111;28;20226;-66
2022/11/27 06:45:56;;;;;;;8.80;3.80;;;;;;;;;;5029030;28;20411;-65
2022/11/27 06:48:21;;;;;;;8.77;3.90;;;;;;;;;;5027888;28;20184;-66
2022/11/27 06:50:47;;;;;;;6.33;3.63;;;;;;;;;;5028765;28;20541;-66
2022/11/27 06:53:12;;;;;;;6.80;3.40;;;;;;;;;;5021231;28;20776;-66
2022/11/27 06:55:37;;;;;;;7.83;3.40;;;;;;;;;;5026211;28;20200;-66
2022/11/27 06:58:03;;;;;;;9.97;3.57;;;;;;;;;;5011721;28;20208;-66
2022/11/27 07:00:28;;;;;;;9.47;3.83;;;;;;;;;;5029713;28;20196;-66
2022/11/27 07:02:54;;;;;;;9.20;3.50;;;;;;;;;;5029464;28;20690;-66
2022/11/27 07:05:20;;;;;;;7.13;4.13;;;;;;;;;;5025626;28;20336;-66
2022/11/27 07:07:45;;;;;;;7.17;3.90;;;;;;;;;;5026920;28;20510;-66
2022/11/27 07:10:10;;;;;;;11.77;4.27;;;;;;;;;;5029223;28;20196;-66
2022/11/27 07:12:36;;;;;;;6.70;4.10;;;;;;;;;;5008104;28;20664;-66
2022/11/27 07:15:01;;;;;;;8.90;4.07;;;;;;;;;;5025825;28;20204;-66
2022/11/27 07:17:26;;;;;;;10.73;3.77;;;;;;;;;;5027613;28;20193;-66
2022/11/27 07:19:52;;;;;;;8.27;3.73;;;;;;;;;;5029024;28;20179;-66
2022/11/27 07:22:17;;;;;;;8.93;3.90;;;;;;;;;;5027575;28;20177;-66
2022/11/27 07:24:43;;;;;;;9.87;4.30;;;;;;;;;;5027574;28;20213;-66
2022/11/27 07:27:08;;;;;;;6.70;3.97;;;;;;;;;;5027176;28;20181;-66
2022/11/27 07:29:33;;;;;;;6.50;3.43;;;;;;;;;;5025822;28;20284;-66
2022/11/27 07:31:58;;;;;;;10.00;4.97;;;;;;;;;;5025722;28;20176;-65
2022/11/27 07:34:24;;;;;;;7.73;4.07;;;;;;;;;;5007975;28;20200;-68
2022/11/27 07:36:49;;;;;;;6.50;4.10;;;;;;;;;;5027323;28;20658;-65
2022/11/27 07:39:15;;;;;;;7.63;4.13;;;;;;;;;;5007422;28;20552;-67
2022/11/27 07:41:43;;;;;;;8.70;4.10;;;;;;;;;;5027837;28;20181;-67
2022/11/27 07:44:08;;;;;;;12.53;4.70;;;;;;;;;;5027606;28;20435;-67
2022/11/27 07:46:34;;;;;;;11.07;3.80;;;;;;;;;;5026994;28;20465;-67
2022/11/27 07:48:59;;;;;;;6.60;3.77;;;;;;;;;;5026367;28;20271;-67
2022/11/27 07:51:25;;;;;;;9.93;3.90;;;;;;;;;;5026882;28;20204;-65
2022/11/27 07:53:53;;;;;;;9.13;4.23;;;;;;;;;;5026056;28;20223;-67
2022/11/27 07:56:18;;;;;;;7.30;4.50;;;;;;;;;;5028228;28;20676;-67
2022/11/27 07:58:44;;;;;;;5.57;3.53;;;;;;;;;;5026907;28;20773;-67
2022/11/27 08:01:10;;;;;;;6.43;3.60;;;;;;;;;;5009362;28;20185;-68
2022/11/27 08:03:36;;;;;;;12.80;4.50;;;;;;;;;;5026898;28;20184;-67
2022/11/27 08:06:02;;;;;;;4.80;4.00;;;;;;;;;;5025491;28;20413;-67
2022/11/27 08:08:27;;;;;;;9.73;5.23;;;;;;;;;;5026363;28;20192;-67
2022/11/27 08:10:52;;;;;;;7.50;5.00;;;;;;;;;;5025797;28;20243;-68
2022/11/27 08:13:17;;;;;;;7.67;5.00;;;;;;;;;;5025945;28;20181;-67
2022/11/27 08:15:45;;;;;;;9.93;5.27;;;;;;;;;;5021399;28;20220;-67
2022/11/27 08:18:10;;;;;;;9.70;4.60;;;;;;;;;;5024221;28;20926;-67
2022/11/27 08:20:35;;;;;;;5.70;4.20;;;;;;;;;;5026500;28;20497;-67
2022/11/27 08:23:01;;;;;;;6.00;4.30;;;;;;;;;;5028143;28;20181;-67
2022/11/27 08:25:26;;;;;;;7.47;4.20;;;;;;;;;;5026712;28;20244;-67
2022/11/27 08:27:51;;;;;;;10.87;4.30;;;;;;;;;;5025569;28;20180;-67
2022/11/27 08:30:16;;;;;;;8.60;5.07;;;;;;;;;;5025873;28;20258;-67
2022/11/27 08:32:42;;;;;;;5.53;4.17;;;;;;;;;;5026879;28;20180;-67
2022/11/27 08:35:08;;;;;;;8.63;4.60;;;;;;;;;;5025329;28;20203;-67
2022/11/27 08:37:33;;;;;;;7.33;4.00;;;;;;;;;;5025529;28;20844;-67
2022/11/27 08:39:58;;;;;;;8.40;4.57;;;;;;;;;;5027222;28;20256;-66
2022/11/27 08:42:24;;;;;;;5.23;3.87;;;;;;;;;;5005495;28;20647;-64
2022/11/27 08:44:49;;;;;;;9.50;4.40;;;;;;;;;;5027430;28;20204;-67
2022/11/27 08:47:15;;;;;;;8.70;4.23;;;;;;;;;;5024720;28;20180;-68
2022/11/27 08:49:41;;;;;;;10.00;5.00;;;;;;;;;;5025133;28;20260;-67
2022/11/27 08:52:06;;;;;;;8.43;4.90;;;;;;;;;;5006122;28;20419;-65
2022/11/27 08:54:31;;;;;;;6.57;4.47;;;;;;;;;;5024843;28;20208;-65
2022/11/27 08:56:57;;;;;;;7.10;4.33;;;;;;;;;;5022221;28;20272;-68
2022/11/27 08:59:22;;;;;;;9.30;4.80;;;;;;;;;;5026432;28;20176;-67
2022/11/27 09:01:47;;;;;;;11.73;4.37;;;;;;;;;;5024606;28;20711;-65
2022/11/27 09:04:12;;;;;;;9.20;4.07;;;;;;;;;;5005989;28;20204;-67
2022/11/27 09:06:39;;;;;;;6.50;4.40;;;;;;;;;;5025074;28;20196;-67
2022/11/27 09:09:04;;;;;;;9.83;4.83;;;;;;;;;;5023853;28;20192;-68
2022/11/27 09:11:30;;;;;;;7.03;4.40;;;;;;;;;;5026729;28;20821;-68
2022/11/27 09:13:57;;;;;;;7.60;5.00;;;;;;;;;;5025272;28;20222;-68
2022/11/27 09:16:22;;;;;;;6.40;4.60;;;;;;;;;;5006171;28;20427;-68
2022/11/27 09:18:49;;;;;;;9.40;5.10;;;;;;;;;;5006942;28;20435;-67
2022/11/27 09:21:15;;;;;;;6.90;4.80;;;;;;;;;;5023601;28;20212;-68
2022/11/27 09:23:40;;;;;;;12.07;6.03;;;;;;;;;;5022988;28;20422;-68
2022/11/27 09:26:08;;;;;;;12.80;5.40;;;;;;;;;;5024711;28;20430;-67
2022/11/27 09:28:33;;;;;;;9.90;4.83;;;;;;;;;;5028632;28;20693;-67
2022/11/27 09:31:00;;;;;;;6.57;4.90;;;;;;;;;;5030209;28;20462;-67
2022/11/27 09:33:27;;;;;;;8.50;4.10;;;;;;;;;;5030037;28;20176;-65
2022/11/27 09:35:53;;;;;;;13.60;6.20;;;;;;;;;;5026841;28;20443;-67
2022/11/27 09:38:18;;;;;;;10.50;5.80;;;;;;;;;;5026729;28;20451;-65
2022/11/27 09:40:47;;;;;;;5.27;4.70;;;;;;;;;;5028821;28;20657;-65
2022/11/27 09:43:14;;;;;;;7.00;4.83;;;;;;;;;;5029719;28;20262;-67
2022/11/27 09:45:45;;;;;;;11.03;4.73;;;;;;;;;;5026439;28;20427;-65
2022/11/27 09:48:13;;;;;;;7.37;4.20;;;;;;;;;;5009264;28;20502;-65
2022/11/27 09:50:41;;;;;;;8.73;4.80;;;;;;;;;;5028571;28;20498;-65
2022/11/27 09:53:25;;;;;;;6.57;4.33;;;;;;;;;;5028348;28;20418;-66
2022/11/27 09:55:52;;;;;;;7.40;5.20;;;;;;;;;;5009992;28;20427;-66
2022/11/27 09:58:17;;;;;;;11.43;5.40;;;;;;;;;;5026465;28;20415;-65
2022/11/27 10:00:46;;;;;;;7.77;4.10;;;;;;;;;;5006401;28;20427;-65
2022/11/27 10:03:17;;;;;;;9.97;4.67;;;;;;;;;;5026653;28;20557;-66
2022/11/27 10:05:57;;;;;;;7.97;4.70;;;;;;;;;;5029315;28;20443;-66
2022/11/27 10:08:27;;;;;;;6.90;4.50;;;;;;;;;;5028773;28;20410;-65
2022/11/27 10:10:53;;;;;;;7.30;4.80;;;;;;;;;;5008752;28;20486;-65
2022/11/27 10:13:24;;;;;;;10.37;4.83;;;;;;;;;;5010852;28;20508;-66
2022/11/27 10:16:00;;;;;;;7.80;5.10;;;;;;;;;;5026543;28;20176;-65
2022/11/27 10:18:38;;;;;;;8.20;4.47;;;;;;;;;;5026042;28;20415;-66
2022/11/27 10:21:08;;;;;;;10.40;4.57;;;;;;;;;;5010930;28;20518;-65
2022/11/27 10:23:40;;;;;;;9.63;4.40;;;;;;;;;;5008491;28;20834;-66
2022/11/27 10:26:17;;;;;;;9.77;5.10;;;;;;;;;;5028267;28;20790;-66
2022/11/27 10:28:46;;;;;;;9.17;4.53;;;;;;;;;;5027582;28;20416;-66
2022/11/27 10:31:11;;;;;;;10.10;4.77;;;;;;;;;;5009924;28;20470;-66
2022/11/27 10:33:40;;;;;;;8.13;4.33;;;;;;;;;;5010914;28;20415;-66
2022/11/27 10:36:12;;;;;;;6.47;4.90;;;;;;;;;;5027563;28;20176;-66
2022/11/27 10:38:39;;;;;;;8.70;4.50;;;;;;;;;;5024180;28;20936;-65
2022/11/27 10:41:15;;;;;;;8.10;5.00;;;;;;;;;;5026609;28;20420;-65
2022/11/27 10:43:40;;;;;;;8.13;5.07;;;;;;;;;;5025899;28;20451;-66
2022/11/27 10:46:13;;;;;;;7.10;4.47;;;;;;;;;;5009175;28;20462;-67
2022/11/27 10:48:38;;;;;;;8.80;4.70;;;;;;;;;;5027583;28;20259;-66
2022/11/27 10:51:16;;;;;;;8.50;4.57;;;;;;;;;;5008319;28;20572;-66
2022/11/27 10:53:43;;;;;;;13.13;5.13;;;;;;;;;;5022086;28;20553;-66
2022/11/27 10:56:12;;;;;;;11.27;5.37;;;;;;;;;;5027187;28;20443;-65
2022/11/27 10:58:46;;;;;;;8.97;5.17;;;;;;;;;;5026841;28;20430;-65
2022/11/27 11:01:13;;;;;;;10.93;5.70;;;;;;;;;;5028716;28;20416;-66
2022/11/27 11:03:38;;;;;;;12.20;6.00;;;;;;;;;;5028826;28;20984;-66
2022/11/27 11:06:05;;;;;;;9.60;4.97;;;;;;;;;;5027855;28;20499;-66
2022/11/27 11:08:33;;;;;;;8.33;4.60;;;;;;;;;;5027024;28;20223;-66
2022/11/27 11:11:00;;;;;;;9.13;4.87;;;;;;;;;;5027337;28;20462;-66
2022/11/27 11:13:40;;;;;;;9.37;5.20;;;;;;;;;;5026146;28;20427;-65
2022/11/27 11:16:14;;;;;;;8.03;4.63;;;;;;;;;;5028736;28;20976;-66
2022/11/27 11:18:41;;;;;;;10.43;5.17;;;;;;;;;;5025440;28;20449;-66
2022/11/27 11:21:12;;;;;;;11.43;5.13;;;;;;;;;;5025632;28;20412;-66
2022/11/27 11:23:39;;;;;;;9.57;5.37;;;;;;;;;;5025878;28;20407;-67
2022/11/27 11:26:07;;;;;;;9.50;5.10;;;;;;;;;;5034837;23;20491;-67
2022/11/27 11:28:35;;;;;;;8.67;5.70;;;;;;;;;;5008817;28;20942;-67
2022/11/27 11:31:04;;;;;;;12.63;5.63;;;;;;;;;;5020667;28;21020;-67
2022/11/27 11:33:30;;;;;;;8.10;5.20;;;;;;;;;;5004692;28;20420;-67
2022/11/27 11:35:59;;;;;;;12.87;5.80;;;;;;;;;;5020141;28;20421;-67
2022/11/27 11:38:27;;;;;;;7.73;5.00;;;;;;;;;;5020176;28;20525;-67
2022/11/27 11:41:01;;;;;;;7.77;5.00;;;;;;;;;;5022321;28;21774;-66
2022/11/27 11:43:28;;;;;;;8.17;5.07;;;;;;;;;;5020562;28;20914;-66
2022/11/27 11:46:02;;;;;;;8.27;5.30;;;;;;;;;;5022349;28;20463;-67
2022/11/27 11:48:29;;;;;;;10.90;6.03;;;;;;;;;;5020057;28;20695;-67
2022/11/27 11:51:07;;;;;;;9.60;5.07;;;;;;;;;;5002243;28;20487;-67
2022/11/27 11:53:33;;;;;;;8.40;5.50;;;;;;;;;;5021157;28;20442;-67
2022/11/27 11:56:04;;;;;;;9.20;5.53;;;;;;;;;;5021097;28;20408;-67
2022/11/27 11:58:29;;;;;;;8.40;5.50;;;;;;;;;;5006630;28;20573;-67
2022/11/27 12:00:59;;;;;;;7.50;5.20;;;;;;;;;;5000089;28;20419;-67
2022/11/27 12:03:31;;;;;;;7.53;5.17;;;;;;;;;;5020344;28;20181;-67
2022/11/27 12:06:22;;;;;;;7.23;5.00;;;;;;;;;;5019050;28;20416;-68
2022/11/27 12:08:59;;;;;;;12.77;5.60;;;;;;;;;;4999887;28;20451;-67
2022/11/27 12:11:48;;;;;;;8.70;5.60;;;;;;;;;;5000727;28;20458;-67
2022/11/27 12:14:24;;;;;;;12.13;6.20;;;;;;;;;;5014836;28;20428;-67
2022/11/27 12:17:18;;;;;;;11.07;5.60;;;;;;;;;;5006560;28;20427;-67
2022/11/27 12:19:52;;;;;;;8.07;4.90;;;;;;;;;;5018573;28;20444;-67
2022/11/27 12:22:20;;;;;;;8.47;5.20;;;;;;;;;;5020707;28;20541;-67
2022/11/27 12:24:49;;;;;;;12.27;5.90;;;;;;;;;;5019606;28;20934;-68
2022/11/27 12:27:14;;;;;;;10.13;5.67;;;;;;;;;;5001330;28;20517;-67
2022/11/27 12:29:48;;;;;;;7.13;5.33;;;;;;;;;;5019300;28;20558;-67
2022/11/27 12:32:17;;;;;;;8.97;6.20;;;;;;;;;;5006679;28;20243;-67
2022/11/27 12:35:01;;;;;;;10.23;6.40;;;;;;;;;;5001310;28;20432;-67
2022/11/27 12:37:29;;;;;;;10.77;5.97;;;;;;;;;;5008942;28;20443;-67
2022/11/27 12:39:54;;;;;;;9.77;6.27;;;;;;;;;;4998396;28;20444;-67
2022/11/27 12:42:29;;;;;;;9.70;5.90;;;;;;;;;;5018051;28;21222;-67
2022/11/27 12:44:57;;;;;;;9.50;5.10;;;;;;;;;;5018535;28;20185;-67
2022/11/27 12:47:41;;;;;;;12.90;6.13;;;;;;;;;;5018388;28;20423;-68
2022/11/27 12:50:12;;;;;;;8.60;5.50;;;;;;;;;;5018185;28;20475;-67
2022/11/27 12:52:39;;;;;;;9.77;5.27;;;;;;;;;;5018338;28;20499;-68
2022/11/27 12:55:11;;;;;;;6.90;5.40;;;;;;;;;;5000996;28;20412;-67
2022/11/27 12:57:40;;;;;;;12.67;6.07;;;;;;;;;;5019396;28;20411;-68
2022/11/27 13:00:12;;;;;;;11.10;6.07;;;;;;;;;;5019887;28;20439;-66
2022/11/27 13:02:45;;;;;;;9.20;5.60;;;;;;;;;;5024228;28;20411;-67
2022/11/27 13:05:14;;;;;;;8.07;5.07;;;;;;;;;;5012473;28;20815;-67
2022/11/27 13:07:42;;;;;;;9.70;5.63;;;;;;;;;;5025566;28;20509;-67
2022/11/27 13:10:12;;;;;;;11.60;6.17;;;;;;;;;;5026805;28;20462;-67
2022/11/27 13:12:48;;;;;;;8.50;6.10;;;;;;;;;;5025071;28;20503;-67
2022/11/27 13:15:36;;;;;;;12.90;7.50;;;;;;;;;;5024699;28;20441;-67
2022/11/27 13:18:20;;;;;;;8.70;6.00;;;;;;;;;;4983393;28;20427;-67
2022/11/27 13:20:47;;;;;;;8.57;6.00;;;;;;;;;;5007846;28;20415;-67
2022/11/27 13:23:12;;;;;;;8.13;5.83;;;;;;;;;;5027720;28;20804;-67
2022/11/27 13:25:46;;;;;;;8.97;5.93;;;;;;;;;;5024894;28;20446;-67
2022/11/27 13:28:20;;;;;;;10.80;6.10;;;;;;;;;;5031305;23;20184;-76
2022/11/27 13:30:47;;;;;;;11.57;6.33;;;;;;;;;;5018128;28;20458;-76
2022/11/27 13:33:21;;;;;;;9.77;5.97;;;;;;;;;;5019298;28;20897;-77
2022/11/27 13:35:46;;;;;;;13.70;6.70;;;;;;;;;;5033100;28;20431;-76
2022/11/27 13:38:14;;;;;;;11.20;6.77;;;;;;;;;;5031788;28;20434;-76
2022/11/27 13:40:39;;;;;;;10.80;5.93;;;;;;;;;;5034765;28;20488;-76
2022/11/27 13:43:05;;;;;;;9.00;5.97;;;;;;;;;;5016754;28;21074;-76
2022/11/27 13:45:35;;;;;;;9.47;5.93;;;;;;;;;;5017939;28;20572;-76
2022/11/27 13:48:01;;;;;;;11.03;5.90;;;;;;;;;;5029902;28;20501;-76
2022/11/27 13:50:27;;;;;;;10.20;6.00;;;;;;;;;;5005033;28;20481;-76
2022/11/27 13:53:04;;;;;;;9.83;7.10;;;;;;;;;;5016389;28;20423;-76
2022/11/27 13:55:34;;;;;;;9.00;6.27;;;;;;;;;;5013743;28;20837;-76
2022/11/27 13:58:01;;;;;;;9.70;6.83;;;;;;;;;;5013461;28;20430;-76
2022/11/27 14:00:37;;;;;;;7.90;5.90;;;;;;;;;;5015085;28;20982;-76
2022/11/27 14:03:04;;;;;;;8.73;6.30;;;;;;;;;;5032351;28;20414;-76
2022/11/27 14:05:34;;;;;;;9.53;6.07;;;;;;;;;;5030808;28;20545;-76
2022/11/27 14:08:00;;;;;;;8.27;6.30;;;;;;;;;;5006958;28;20410;-76
2022/11/27 14:10:27;;;;;;;8.10;5.93;;;;;;;;;;5031001;28;20968;-76
2022/11/27 14:12:55;;;;;;;9.50;6.30;;;;;;;;;;5014588;28;20724;-76
2022/11/27 14:15:23;;;;;;;10.13;7.33;;;;;;;;;;5027280;28;20423;-76
2022/11/27 14:17:49;;;;;;;9.20;6.43;;;;;;;;;;5008098;28;20419;-76
2022/11/27 14:20:14;;;;;;;8.47;6.30;;;;;;;;;;5009299;28;20516;-76
2022/11/27 14:22:43;;;;;;;9.23;7.50;;;;;;;;;;5025583;28;20423;-76
2022/11/27 14:25:37;;;;;;;9.27;7.00;;;;;;;;;;5026699;28;20188;-76
2022/11/27 14:28:10;;;;;;;7.60;5.97;;;;;;;;;;5027066;28;20442;-76
2022/11/27 14:30:38;;;;;;;9.70;6.83;;;;;;;;;;5025946;28;20957;-76
2022/11/27 14:33:04;;;;;;;12.20;7.20;;;;;;;;;;5030664;28;20415;-76
2022/11/27 14:35:29;;;;;;;14.70;6.77;;;;;;;;;;5029422;28;20445;-76
2022/11/27 14:38:06;;;;;;;7.53;6.47;;;;;;;;;;5030072;28;20203;-75
2022/11/27 14:40:32;;;;;;;8.40;6.17;;;;;;;;;;5027911;28;20200;-75
2022/11/27 14:43:06;;;;;;;9.50;5.90;;;;;;;;;;5030938;28;20453;-76